createdAt,value
2019-04-07T00:00:12.638Z,0.00
2019-04-07T00:01:12.964Z,0.00
2019-04-07T00:02:13.057Z,0.00
2019-04-07T00:03:12.888Z,0.00
2019-04-07T00:04:12.749Z,0.00
2019-04-07T00:05:14.713Z,0.00
2019-04-07T00:06:13.380Z,0.00
2019-04-07T00:07:12.831Z,0.00
2019-04-07T00:08:13.386Z,0.00
2019-04-07T00:09:12.886Z,0.00
2019-04-07T00:10:12.916Z,0.00
2019-04-07T00:11:12.941Z,0.00
2019-04-07T00:12:12.970Z,0.00
2019-04-07T00:13:13.597Z,0.00
2019-04-07T00:14:13.026Z,0.00
2019-04-07T00:15:13.051Z,0.00
2019-04-07T00:16:13.488Z,0.00
2019-04-07T00:17:13.686Z,0.00
2019-04-07T00:18:13.341Z,0.00
2019-04-07T00:19:13.688Z,0.00
2019-04-07T00:20:13.789Z,0.00
2019-04-07T00:21:13.683Z,0.00
2019-04-07T00:22:13.390Z,0.00
2019-04-07T00:23:13.271Z,0.00
2019-04-07T00:24:13.624Z,0.00
2019-04-07T00:25:13.329Z,0.00
2019-04-07T00:26:13.355Z,0.00
2019-04-07T00:27:13.382Z,0.00
2019-04-07T00:28:13.410Z,0.00
2019-04-07T00:29:13.439Z,0.00
2019-04-07T00:30:13.726Z,0.00
2019-04-07T00:31:13.491Z,0.00
2019-04-07T00:32:14.080Z,0.00
2019-04-07T00:33:13.548Z,0.00
2019-04-07T00:34:13.573Z,0.00
2019-04-07T00:35:23.184Z,0.00
2019-04-07T00:36:13.630Z,0.00
2019-04-07T00:37:14.085Z,0.00
2019-04-07T00:38:13.909Z,0.00
2019-04-07T00:39:13.713Z,0.00
2019-04-07T00:40:14.240Z,0.00
2019-04-07T00:41:13.768Z,0.00
2019-04-07T00:42:13.797Z,0.00
2019-04-07T00:43:13.824Z,0.00
2019-04-07T00:44:13.851Z,0.00
2019-04-07T00:45:14.113Z,0.00
2019-04-07T00:46:14.110Z,0.00
2019-04-07T00:47:14.054Z,0.00
2019-04-07T00:48:13.962Z,0.00
2019-04-07T00:49:13.991Z,0.00
2019-04-07T00:50:14.187Z,0.00
2019-04-07T00:51:14.046Z,0.00
2019-04-07T00:52:14.074Z,0.00
2019-04-07T00:53:14.497Z,0.00
2019-04-07T00:54:14.130Z,0.00
2019-04-07T00:55:14.251Z,0.00
2019-04-07T00:56:14.624Z,0.00
2019-04-07T00:57:14.801Z,0.00
2019-04-07T00:58:14.852Z,0.00
2019-04-07T00:59:14.401Z,0.00
2019-04-07T01:00:16.489Z,0.00
2019-04-07T01:01:14.326Z,0.00
2019-04-07T01:02:14.352Z,0.00
2019-04-07T01:03:14.836Z,0.00
2019-04-07T01:04:14.408Z,0.00
2019-04-07T01:05:14.700Z,0.00
2019-04-07T01:06:14.464Z,0.00
2019-04-07T01:07:14.540Z,0.00
2019-04-07T01:08:15.466Z,0.00
2019-04-07T01:09:14.577Z,0.00
2019-04-07T01:10:15.107Z,0.00
2019-04-07T01:11:14.602Z,0.00
2019-04-07T01:12:14.926Z,0.00
2019-04-07T01:13:14.658Z,0.00
2019-04-07T01:14:14.683Z,0.00
2019-04-07T01:15:15.146Z,0.00
2019-04-07T01:16:14.741Z,0.00
2019-04-07T01:17:14.983Z,0.00
2019-04-07T01:18:15.396Z,0.00
2019-04-07T01:19:14.828Z,0.00
2019-04-07T01:20:15.159Z,0.00
2019-04-07T01:21:14.958Z,0.00
2019-04-07T01:22:15.447Z,0.00
2019-04-07T01:23:14.937Z,0.00
2019-04-07T01:24:14.963Z,0.00
2019-04-07T01:25:14.991Z,0.00
2019-04-07T01:26:15.018Z,0.00
2019-04-07T01:27:15.720Z,0.00
2019-04-07T01:28:15.074Z,0.00
2019-04-07T01:29:15.624Z,0.00
2019-04-07T01:30:15.133Z,0.00
2019-04-07T01:31:15.159Z,0.00
2019-04-07T01:32:15.200Z,0.00
2019-04-07T01:33:15.379Z,0.00
2019-04-07T01:34:15.243Z,0.00
2019-04-07T01:35:15.270Z,0.00
2019-04-07T01:36:15.298Z,0.00
2019-04-07T01:37:15.342Z,0.00
2019-04-07T01:38:15.356Z,0.00
2019-04-07T01:39:15.391Z,0.00
2019-04-07T01:40:15.711Z,0.00
2019-04-07T01:41:15.437Z,0.00
2019-04-07T01:42:15.466Z,0.00
2019-04-07T01:43:15.501Z,0.00
2019-04-07T01:44:15.562Z,0.00
2019-04-07T01:45:15.567Z,0.00
2019-04-07T01:46:15.579Z,0.00
2019-04-07T01:47:15.605Z,0.00
2019-04-07T01:48:16.082Z,0.00
2019-04-07T01:49:15.850Z,0.00
2019-04-07T01:50:15.910Z,0.00
2019-04-07T01:51:15.787Z,0.00
2019-04-07T01:52:16.156Z,0.00
2019-04-07T01:53:15.776Z,0.00
2019-04-07T01:54:16.330Z,0.00
2019-04-07T01:55:15.837Z,0.00
2019-04-07T01:56:15.858Z,0.00
2019-04-07T01:57:15.887Z,0.00
2019-04-07T01:58:16.366Z,0.00
2019-04-07T01:59:16.626Z,0.00
2019-04-07T02:00:16.231Z,0.00
2019-04-07T02:01:15.999Z,0.00
2019-04-07T02:02:16.028Z,0.00
2019-04-07T02:03:16.394Z,0.00
2019-04-07T02:04:16.086Z,0.00
2019-04-07T02:05:16.111Z,0.00
2019-04-07T02:06:16.615Z,0.00
2019-04-07T02:07:16.210Z,0.00
2019-04-07T02:08:16.657Z,0.00
2019-04-07T02:09:16.275Z,0.00
2019-04-07T02:10:17.055Z,0.00
2019-04-07T02:11:16.790Z,0.00
2019-04-07T02:12:16.961Z,0.00
2019-04-07T02:13:16.538Z,0.00
2019-04-07T02:14:16.365Z,0.00
2019-04-07T02:15:16.478Z,0.00
2019-04-07T02:16:16.421Z,0.00
2019-04-07T02:17:17.167Z,0.00
2019-04-07T02:18:16.478Z,0.00
2019-04-07T02:19:16.503Z,0.00
2019-04-07T02:20:16.782Z,0.00
2019-04-07T02:21:16.568Z,0.00
2019-04-07T02:22:16.591Z,0.00
2019-04-07T02:23:16.619Z,0.00
2019-04-07T02:24:16.647Z,0.00
2019-04-07T02:25:17.265Z,0.00
2019-04-07T02:26:16.702Z,0.00
2019-04-07T02:27:17.223Z,0.00
2019-04-07T02:28:16.758Z,0.00
2019-04-07T02:29:17.024Z,0.00
2019-04-07T02:30:16.816Z,0.00
2019-04-07T02:31:17.228Z,0.00
2019-04-07T02:32:17.390Z,0.00
2019-04-07T02:33:17.977Z,0.00
2019-04-07T02:34:17.754Z,0.00
2019-04-07T02:35:16.956Z,0.00
2019-04-07T02:36:25.547Z,0.00
2019-04-07T02:37:17.522Z,0.00
2019-04-07T02:38:17.624Z,0.00
2019-04-07T02:39:17.392Z,0.00
2019-04-07T02:40:17.846Z,0.00
2019-04-07T02:41:17.832Z,0.00
2019-04-07T02:42:17.219Z,0.00
2019-04-07T02:43:17.945Z,0.00
2019-04-07T02:44:17.965Z,0.00
2019-04-07T02:45:17.269Z,0.00
2019-04-07T02:46:18.219Z,0.00
2019-04-07T02:47:18.122Z,0.00
2019-04-07T02:48:18.102Z,0.00
2019-04-07T02:49:17.870Z,0.00
2019-04-07T02:50:17.759Z,0.00
2019-04-07T02:51:17.963Z,0.00
2019-04-07T02:52:17.651Z,0.00
2019-04-07T02:53:17.484Z,0.00
2019-04-07T02:54:17.586Z,0.00
2019-04-07T02:55:18.331Z,0.00
2019-04-07T02:56:17.549Z,0.00
2019-04-07T02:57:17.582Z,0.00
2019-04-07T02:58:17.911Z,0.00
2019-04-07T02:59:17.635Z,0.00
2019-04-07T03:00:18.404Z,0.00
2019-04-07T03:01:18.063Z,0.00
2019-04-07T03:02:17.841Z,0.00
2019-04-07T03:03:18.814Z,0.00
2019-04-07T03:04:17.891Z,0.00
2019-04-07T03:05:18.014Z,0.00
2019-04-07T03:06:34.014Z,0.00
2019-04-07T03:07:17.868Z,0.00
2019-04-07T03:08:18.467Z,0.00
2019-04-07T03:09:18.706Z,0.00
2019-04-07T03:10:18.645Z,0.00
2019-04-07T03:11:18.173Z,0.00
2019-04-07T03:12:18.977Z,0.00
2019-04-07T03:13:18.033Z,0.00
2019-04-07T03:14:18.064Z,0.00
2019-04-07T03:15:18.088Z,0.00
2019-04-07T03:16:19.234Z,0.00
2019-04-07T03:17:18.204Z,0.00
2019-04-07T03:18:18.175Z,0.00
2019-04-07T03:19:19.197Z,0.00
2019-04-07T03:20:18.732Z,0.00
2019-04-07T03:21:19.461Z,0.00
2019-04-07T03:22:18.323Z,0.00
2019-04-07T03:23:18.315Z,0.00
2019-04-07T03:24:19.367Z,0.00
2019-04-07T03:25:18.513Z,0.00
2019-04-07T03:26:18.546Z,0.00
2019-04-07T03:27:18.430Z,0.00
2019-04-07T03:28:18.658Z,0.00
2019-04-07T03:29:18.501Z,0.00
2019-04-07T03:30:20.817Z,0.00
2019-04-07T03:31:19.981Z,0.00
2019-04-07T03:32:20.132Z,0.00
2019-04-07T03:33:22.032Z,0.00
2019-04-07T03:34:20.420Z,0.00
2019-04-07T03:35:20.916Z,0.00
2019-04-07T03:36:21.318Z,0.00
2019-04-07T03:37:33.266Z,0.00
2019-04-07T03:38:19.000Z,0.00
2019-04-07T03:39:19.140Z,0.00
2019-04-07T03:40:18.808Z,0.00
2019-04-07T03:41:19.669Z,0.00
2019-04-07T03:42:18.859Z,0.00
2019-04-07T03:43:19.624Z,0.00
2019-04-07T03:44:18.914Z,0.00
2019-04-07T03:45:20.241Z,0.00
2019-04-07T03:46:18.972Z,0.00
2019-04-07T03:47:18.999Z,0.00
2019-04-07T03:48:19.124Z,0.00
2019-04-07T03:49:19.990Z,0.00
2019-04-07T03:50:19.087Z,0.00
2019-04-07T03:51:19.153Z,0.00
2019-04-07T03:52:19.600Z,0.00
2019-04-07T03:53:20.131Z,0.00
2019-04-07T03:54:19.202Z,0.00
2019-04-07T03:55:20.385Z,0.00
2019-04-07T03:56:20.143Z,0.00
2019-04-07T03:57:19.722Z,0.00
2019-04-07T03:58:19.618Z,0.00
2019-04-07T03:59:20.153Z,0.00
2019-04-07T04:00:19.450Z,0.00
2019-04-07T04:01:19.416Z,0.00
2019-04-07T04:02:19.681Z,0.00
2019-04-07T04:03:19.459Z,0.00
2019-04-07T04:04:19.484Z,0.00
2019-04-07T04:05:19.514Z,0.00
2019-04-07T04:06:20.584Z,0.00
2019-04-07T04:07:29.214Z,0.00
2019-04-07T04:08:19.602Z,0.00
2019-04-07T04:09:19.629Z,0.00
2019-04-07T04:10:19.657Z,0.00
2019-04-07T04:11:20.409Z,0.00
2019-04-07T04:12:19.713Z,0.00
2019-04-07T04:13:20.191Z,0.00
2019-04-07T04:14:19.770Z,0.00
2019-04-07T04:15:20.113Z,0.00
2019-04-07T04:16:20.132Z,0.00
2019-04-07T04:17:19.865Z,0.00
2019-04-07T04:18:20.581Z,0.00
2019-04-07T04:19:20.877Z,0.00
2019-04-07T04:20:19.940Z,0.00
2019-04-07T04:21:19.968Z,0.00
2019-04-07T04:22:21.047Z,0.00
2019-04-07T04:23:20.034Z,0.00
2019-04-07T04:24:20.058Z,0.00
2019-04-07T04:25:21.149Z,0.00
2019-04-07T04:26:20.111Z,0.00
2019-04-07T04:27:20.406Z,0.00
2019-04-07T04:28:20.347Z,0.00
2019-04-07T04:29:20.237Z,4.00
2019-04-07T04:30:21.165Z,0.00
2019-04-07T04:31:20.254Z,4.00
2019-04-07T04:32:21.556Z,0.00
2019-04-07T04:33:20.311Z,4.00
2019-04-07T04:34:20.590Z,4.00
2019-04-07T04:35:20.369Z,8.00
2019-04-07T04:36:20.398Z,8.00
2019-04-07T04:37:34.670Z,8.00
2019-04-07T04:38:20.461Z,12.00
2019-04-07T04:39:21.209Z,12.00
2019-04-07T04:40:20.772Z,16.00
2019-04-07T04:41:21.034Z,20.00
2019-04-07T04:42:20.654Z,24.00
2019-04-07T04:43:20.599Z,28.00
2019-04-07T04:44:21.862Z,32.00
2019-04-07T04:45:20.656Z,36.00
2019-04-07T04:46:21.723Z,40.00
2019-04-07T04:47:20.872Z,48.00
2019-04-07T04:48:20.750Z,48.00
2019-04-07T04:49:21.127Z,56.00
2019-04-07T04:50:21.166Z,60.00
2019-04-07T04:51:20.885Z,68.00
2019-04-07T04:52:20.857Z,72.00
2019-04-07T04:53:20.888Z,84.00
2019-04-07T04:54:21.202Z,96.00
2019-04-07T04:55:20.941Z,108.00
2019-04-07T04:56:22.750Z,120.00
2019-04-07T04:57:21.610Z,128.00
2019-04-07T04:58:21.028Z,140.00
2019-04-07T04:59:21.660Z,160.00
2019-04-07T05:00:21.815Z,184.00
2019-04-07T05:01:21.882Z,208.00
2019-04-07T05:02:21.144Z,232.00
2019-04-07T05:03:21.573Z,268.00
2019-04-07T05:04:21.747Z,308.00
2019-04-07T05:05:21.324Z,344.00
2019-04-07T05:06:21.367Z,372.00
2019-04-07T05:07:22.821Z,396.00
2019-04-07T05:08:21.316Z,408.00
2019-04-07T05:09:21.345Z,420.00
2019-04-07T05:10:21.555Z,428.00
2019-04-07T05:11:21.411Z,456.00
2019-04-07T05:12:21.987Z,496.00
2019-04-07T05:13:21.469Z,556.00
2019-04-07T05:14:22.003Z,604.00
2019-04-07T05:15:21.518Z,648.00
2019-04-07T05:16:21.544Z,692.00
2019-04-07T05:17:21.932Z,732.00
2019-04-07T05:18:22.249Z,768.00
2019-04-07T05:19:21.629Z,808.00
2019-04-07T05:20:21.774Z,844.00
2019-04-07T05:21:21.689Z,880.00
2019-04-07T05:22:22.510Z,920.00
2019-04-07T05:23:21.746Z,964.00
2019-04-07T05:24:22.229Z,1008.00
2019-04-07T05:25:22.272Z,1056.00
2019-04-07T05:26:22.352Z,1108.00
2019-04-07T05:27:21.879Z,1160.00
2019-04-07T05:28:21.906Z,1208.00
2019-04-07T05:29:21.921Z,1272.00
2019-04-07T05:30:22.547Z,1340.00
2019-04-07T05:31:22.481Z,1420.00
2019-04-07T05:32:22.320Z,1516.00
2019-04-07T05:33:22.037Z,1604.00
2019-04-07T05:34:23.001Z,1692.00
2019-04-07T05:35:22.531Z,1768.00
2019-04-07T05:36:22.352Z,1836.00
2019-04-07T05:37:22.151Z,1900.00
2019-04-07T05:38:22.368Z,1956.00
2019-04-07T05:39:22.934Z,2012.00
2019-04-07T05:40:22.236Z,2056.00
2019-04-07T05:41:22.967Z,2068.00
2019-04-07T05:42:22.552Z,2024.00
2019-04-07T05:43:22.728Z,1948.00
2019-04-07T05:44:22.353Z,1896.00
2019-04-07T05:45:22.666Z,1888.00
2019-04-07T05:46:22.790Z,1884.00
2019-04-07T05:47:22.438Z,1872.00
2019-04-07T05:48:22.765Z,1864.00
2019-04-07T05:49:24.186Z,1856.00
2019-04-07T05:50:26.737Z,1856.00
2019-04-07T05:51:22.894Z,1844.00
2019-04-07T05:52:22.789Z,1832.00
2019-04-07T05:53:23.270Z,1852.00
2019-04-07T05:54:22.642Z,1940.00
2019-04-07T05:55:24.361Z,2060.00
2019-04-07T05:56:25.891Z,2196.00
2019-04-07T05:57:22.729Z,2304.00
2019-04-07T05:58:23.320Z,2372.00
2019-04-07T05:59:22.788Z,2408.00
2019-04-07T06:00:23.477Z,2440.00
2019-04-07T06:01:23.686Z,2476.00
2019-04-07T06:02:23.297Z,2516.00
2019-04-07T06:03:22.904Z,2584.00
2019-04-07T06:04:22.933Z,2636.00
2019-04-07T06:05:22.962Z,2668.00
2019-04-07T06:06:22.992Z,2692.00
2019-04-07T06:07:25.668Z,2704.00
2019-04-07T06:08:32.149Z,2720.00
2019-04-07T06:09:23.155Z,2740.00
2019-04-07T06:10:27.621Z,2768.00
2019-04-07T06:11:23.158Z,2808.00
2019-04-07T06:12:23.577Z,2868.00
2019-04-07T06:13:23.703Z,2892.00
2019-04-07T06:14:24.314Z,2832.00
2019-04-07T06:15:23.328Z,2716.00
2019-04-07T06:16:23.761Z,2592.00
2019-04-07T06:17:26.101Z,2468.00
2019-04-07T06:18:23.951Z,2340.00
2019-04-07T06:19:23.863Z,2220.00
2019-04-07T06:20:23.553Z,2128.00
2019-04-07T06:21:23.492Z,2052.00
2019-04-07T06:22:23.631Z,1972.00
2019-04-07T06:23:25.816Z,1904.00
2019-04-07T06:24:23.521Z,1860.00
2019-04-07T06:25:23.552Z,1848.00
2019-04-07T06:26:23.579Z,1896.00
2019-04-07T06:27:24.034Z,1984.00
2019-04-07T06:28:23.796Z,2092.00
2019-04-07T06:29:25.619Z,2200.00
2019-04-07T06:30:24.065Z,2316.00
2019-04-07T06:31:25.823Z,2448.00
2019-04-07T06:32:24.411Z,2588.00
2019-04-07T06:33:23.784Z,2692.00
2019-04-07T06:34:23.860Z,2752.00
2019-04-07T06:35:23.845Z,2784.00
2019-04-07T06:36:26.294Z,2828.00
2019-04-07T06:37:27.793Z,2880.00
2019-04-07T06:38:31.845Z,2896.00
2019-04-07T06:39:24.141Z,2852.00
2019-04-07T06:40:24.217Z,2728.00
2019-04-07T06:41:27.329Z,2568.00
2019-04-07T06:42:24.217Z,2404.00
2019-04-07T06:43:24.754Z,2268.00
2019-04-07T06:44:24.316Z,2164.00
2019-04-07T06:45:24.461Z,2112.00
2019-04-07T06:46:27.671Z,2128.00
2019-04-07T06:47:24.926Z,2184.00
2019-04-07T06:48:24.226Z,2252.00
2019-04-07T06:49:27.552Z,2324.00
2019-04-07T06:50:24.287Z,2392.00
2019-04-07T06:51:26.930Z,2428.00
2019-04-07T06:52:24.787Z,2428.00
2019-04-07T06:53:24.568Z,2392.00
2019-04-07T06:54:24.567Z,2364.00
2019-04-07T06:55:26.630Z,2348.00
2019-04-07T06:56:24.466Z,2324.00
2019-04-07T06:57:24.495Z,2320.00
2019-04-07T06:58:24.524Z,2304.00
2019-04-07T06:59:25.069Z,2288.00
2019-04-07T07:00:25.760Z,2248.00
2019-04-07T07:01:26.514Z,2204.00
2019-04-07T07:02:25.043Z,2164.00
2019-04-07T07:03:24.670Z,2124.00
2019-04-07T07:04:25.367Z,2108.00
2019-04-07T07:05:24.732Z,2132.00
2019-04-07T07:06:25.189Z,2196.00
2019-04-07T07:07:25.061Z,2300.00
2019-04-07T07:08:24.818Z,2400.00
2019-04-07T07:09:26.452Z,2500.00
2019-04-07T07:10:28.883Z,2580.00
2019-04-07T07:11:29.234Z,2628.00
2019-04-07T07:12:32.852Z,2644.00
2019-04-07T07:13:30.661Z,2664.00
2019-04-07T07:14:34.779Z,2688.00
2019-04-07T07:15:25.608Z,2724.00
2019-04-07T07:16:25.086Z,2748.00
2019-04-07T07:17:25.700Z,2744.00
2019-04-07T07:18:25.116Z,2776.00
2019-04-07T07:19:27.450Z,2860.00
2019-04-07T07:20:28.587Z,2976.00
2019-04-07T07:21:25.207Z,3084.00
2019-04-07T07:22:25.748Z,3140.00
2019-04-07T07:23:25.333Z,3124.00
2019-04-07T07:24:26.489Z,2992.00
2019-04-07T07:25:26.598Z,2852.00
2019-04-07T07:26:25.390Z,2788.00
2019-04-07T07:27:25.887Z,2724.00
2019-04-07T07:29:08.348Z,2488.00
2019-04-07T07:30:07.997Z,2368.00
2019-04-07T07:31:08.025Z,2276.00
2019-04-07T07:32:08.220Z,2240.00
2019-04-07T07:33:10.839Z,2300.00
2019-04-07T07:34:10.662Z,2464.00
2019-04-07T07:35:12.363Z,2696.00
2019-04-07T07:36:08.182Z,2976.00
2019-04-07T07:37:08.385Z,3308.00
2019-04-07T07:38:08.230Z,3652.00
2019-04-07T07:39:11.400Z,3944.00
2019-04-07T07:40:09.841Z,4076.00
2019-04-07T07:41:08.926Z,4116.00
2019-04-07T07:42:08.350Z,4108.00
2019-04-07T07:43:08.659Z,4108.00
2019-04-07T07:44:09.617Z,4164.00
2019-04-07T07:45:12.659Z,4296.00
2019-04-07T07:46:08.725Z,4460.00
2019-04-07T07:47:09.095Z,4596.00
2019-04-07T07:48:08.530Z,4760.00
2019-04-07T07:49:08.586Z,4972.00
2019-04-07T07:50:08.961Z,5292.00
2019-04-07T07:51:12.911Z,5624.00
2019-04-07T07:52:08.650Z,5740.00
2019-04-07T07:53:08.681Z,5760.00
2019-04-07T07:54:08.836Z,5812.00
2019-04-07T07:56:12.111Z,5996.00
2019-04-07T07:57:08.801Z,6092.00
2019-04-07T07:58:09.325Z,6172.00
2019-04-07T07:59:08.864Z,6436.00
2019-04-07T08:00:08.894Z,6872.00
2019-04-07T08:01:11.293Z,7472.00
2019-04-07T08:02:09.790Z,7920.00
2019-04-07T08:03:08.985Z,8168.00
2019-04-07T08:04:09.752Z,8112.00
2019-04-07T08:05:09.330Z,7864.00
2019-04-07T08:06:09.664Z,7760.00
2019-04-07T08:07:13.473Z,7968.00
2019-04-07T08:08:09.298Z,8336.00
2019-04-07T08:09:13.709Z,8704.00
2019-04-07T08:10:09.592Z,9256.00
2019-04-07T08:11:09.996Z,10136.00
2019-04-07T08:12:09.603Z,10976.00
2019-04-07T08:13:09.294Z,11612.00
2019-04-07T08:14:09.987Z,12236.00
2019-04-07T08:15:09.358Z,12836.00
2019-04-07T08:16:09.772Z,13044.00
2019-04-07T08:17:09.473Z,12992.00
2019-04-07T08:18:09.729Z,12728.00
2019-04-07T08:19:10.290Z,12316.00
2019-04-07T08:20:11.398Z,11716.00
2019-04-07T08:21:11.729Z,10884.00
2019-04-07T08:22:10.378Z,10148.00
2019-04-07T08:23:11.769Z,9616.00
2019-04-07T08:24:10.169Z,9428.00
2019-04-07T08:25:09.781Z,9368.00
2019-04-07T08:26:10.436Z,9268.00
2019-04-07T08:27:10.508Z,9236.00
2019-04-07T08:28:09.766Z,8972.00
2019-04-07T08:29:11.967Z,8704.00
2019-04-07T08:30:11.768Z,8592.00
2019-04-07T08:31:09.898Z,8744.00
2019-04-07T08:32:09.894Z,8988.00
2019-04-07T08:33:09.930Z,9276.00
2019-04-07T08:34:09.961Z,9796.00
2019-04-07T08:35:09.998Z,10304.00
2019-04-07T08:36:12.612Z,11020.00
2019-04-07T08:37:13.904Z,11736.00
2019-04-07T08:39:38.771Z,12492.00
2019-04-07T08:40:39.256Z,12464.00
2019-04-07T08:41:41.136Z,12576.00
2019-04-07T08:42:39.190Z,12516.00
2019-04-07T08:43:38.707Z,12200.00
2019-04-07T08:44:38.738Z,11760.00
2019-04-07T08:45:39.747Z,11468.00
2019-04-07T08:46:41.688Z,11384.00
2019-04-07T08:47:39.171Z,11156.00
2019-04-07T08:48:38.962Z,10960.00
2019-04-07T08:49:38.901Z,10892.00
2019-04-07T08:50:38.933Z,10864.00
2019-04-07T08:51:39.433Z,11020.00
2019-04-07T08:52:42.439Z,11284.00
2019-04-07T08:53:42.573Z,11320.00
2019-04-07T08:54:39.065Z,11144.00
2019-04-07T08:55:39.200Z,10824.00
2019-04-07T08:56:39.159Z,10316.00
2019-04-07T08:57:39.163Z,9876.00
2019-04-07T08:58:40.107Z,9652.00
2019-04-07T08:59:42.478Z,9660.00
2019-04-07T09:00:39.261Z,9896.00
2019-04-07T09:01:39.294Z,10352.00
2019-04-07T09:02:39.325Z,10792.00
2019-04-07T09:03:40.006Z,10732.00
2019-04-07T09:04:39.912Z,10232.00
2019-04-07T09:05:39.907Z,9496.00
2019-04-07T09:06:39.630Z,8780.00
2019-04-07T09:07:40.051Z,8240.00
2019-04-07T09:08:39.861Z,7980.00
2019-04-07T09:09:44.807Z,7888.00
2019-04-07T09:10:39.588Z,7988.00
2019-04-07T09:11:41.260Z,8380.00
2019-04-07T09:12:39.653Z,8980.00
2019-04-07T09:13:39.689Z,9736.00
2019-04-07T09:14:40.835Z,10616.00
2019-04-07T09:15:43.615Z,11576.00
2019-04-07T09:16:40.434Z,12296.00
2019-04-07T09:17:44.505Z,12692.00
2019-04-07T09:18:51.021Z,13012.00
2019-04-07T09:19:39.882Z,13468.00
2019-04-07T09:20:42.629Z,14004.00
2019-04-07T09:21:42.430Z,14576.00
2019-04-07T09:22:40.665Z,15040.00
2019-04-07T09:23:40.454Z,15480.00
2019-04-07T09:24:40.049Z,15288.00
2019-04-07T09:25:41.126Z,14768.00
2019-04-07T09:26:42.107Z,14140.00
2019-04-07T09:27:41.027Z,13400.00
2019-04-07T09:28:40.179Z,12672.00
2019-04-07T09:29:40.968Z,12228.00
2019-04-07T09:30:40.837Z,12088.00
2019-04-07T09:31:40.986Z,12140.00
2019-04-07T09:32:40.583Z,12736.00
2019-04-07T09:33:40.346Z,13640.00
2019-04-07T09:34:40.388Z,14252.00
2019-04-07T09:35:41.262Z,14944.00
2019-04-07T09:36:40.746Z,16120.00
2019-04-07T09:37:41.550Z,16268.00
2019-04-07T09:38:40.809Z,16132.00
2019-04-07T09:39:54.685Z,15984.00
2019-04-07T09:40:40.581Z,15796.00
2019-04-07T09:41:41.932Z,16192.00
2019-04-07T09:42:41.187Z,17280.00
2019-04-07T09:43:40.680Z,17696.00
2019-04-07T09:44:40.724Z,18368.00
2019-04-07T09:45:41.215Z,19648.00
2019-04-07T09:46:44.593Z,21024.00
2019-04-07T09:47:41.394Z,22144.00
2019-04-07T09:48:41.403Z,23264.00
2019-04-07T09:49:41.617Z,24960.00
2019-04-07T09:50:40.919Z,25888.00
2019-04-07T09:51:41.513Z,26208.00
2019-04-07T09:52:43.598Z,26624.00
2019-04-07T09:53:41.476Z,36800.00
2019-04-07T09:54:41.055Z,28992.00
2019-04-07T09:55:41.202Z,27232.00
2019-04-07T09:56:41.793Z,26016.00
2019-04-07T09:57:41.855Z,24832.00
2019-04-07T09:58:42.608Z,23872.00
2019-04-07T09:59:41.231Z,23264.00
2019-04-07T10:00:41.407Z,22784.00
2019-04-07T10:01:41.470Z,22656.00
2019-04-07T10:02:41.336Z,22784.00
2019-04-07T10:03:41.372Z,23072.00
2019-04-07T10:04:42.548Z,22752.00
2019-04-07T10:07:42.792Z,24832.00
2019-04-07T10:08:41.872Z,27008.00
2019-04-07T10:09:41.588Z,30400.00
2019-04-07T10:10:41.638Z,42816.00
2019-04-07T10:11:41.803Z,42688.00
2019-04-07T10:12:42.516Z,35008.00
2019-04-07T10:13:41.741Z,32992.00
2019-04-07T10:14:42.097Z,23904.00
2019-04-07T10:15:42.155Z,18944.00
2019-04-07T10:16:41.953Z,15412.00
2019-04-07T10:17:41.878Z,13096.00
2019-04-07T10:18:42.803Z,11760.00
2019-04-07T10:19:42.630Z,11092.00
2019-04-07T10:20:42.793Z,10848.00
2019-04-07T10:21:42.859Z,10912.00
2019-04-07T10:22:42.885Z,11268.00
2019-04-07T10:23:42.098Z,11872.00
2019-04-07T10:24:42.135Z,12456.00
2019-04-07T10:25:42.333Z,12976.00
2019-04-07T10:26:42.958Z,13260.00
2019-04-07T10:27:42.979Z,13200.00
2019-04-07T10:28:43.066Z,13108.00
2019-04-07T10:29:42.803Z,12636.00
2019-04-07T10:30:42.349Z,12360.00
2019-04-07T10:31:42.385Z,12300.00
2019-04-07T10:32:42.852Z,12324.00
2019-04-07T10:33:42.747Z,12420.00
2019-04-07T10:34:42.865Z,12272.00
2019-04-07T10:35:42.532Z,11976.00
2019-04-07T10:36:42.582Z,11420.00
2019-04-07T10:37:42.879Z,11024.00
2019-04-07T10:38:42.649Z,11016.00
2019-04-07T10:39:43.300Z,10872.00
2019-04-07T10:40:43.735Z,10804.00
2019-04-07T10:41:42.803Z,10888.00
2019-04-07T10:42:43.678Z,11044.00
2019-04-07T10:43:43.429Z,11312.00
2019-04-07T10:44:43.557Z,11720.00
2019-04-07T10:45:43.787Z,12264.00
2019-04-07T10:46:42.918Z,13080.00
2019-04-07T10:47:43.662Z,14180.00
2019-04-07T10:48:43.469Z,15472.00
2019-04-07T10:49:43.203Z,16344.00
2019-04-07T10:50:43.703Z,16540.00
2019-04-07T10:51:43.085Z,16352.00
2019-04-07T10:52:43.770Z,16368.00
2019-04-07T10:53:43.154Z,16832.00
2019-04-07T10:54:43.778Z,17376.00
2019-04-07T10:55:44.103Z,17952.00
2019-04-07T10:56:43.865Z,18560.00
2019-04-07T10:57:43.638Z,19488.00
2019-04-07T10:58:43.629Z,20448.00
2019-04-07T10:59:43.371Z,20896.00
2019-04-07T11:00:46.504Z,21248.00
2019-04-07T11:01:43.437Z,21440.00
2019-04-07T11:02:44.185Z,20832.00
2019-04-07T11:03:44.375Z,19584.00
2019-04-07T11:04:44.015Z,17888.00
2019-04-07T11:05:43.569Z,16060.00
2019-04-07T11:06:43.957Z,14804.00
2019-04-07T11:07:43.867Z,13852.00
2019-04-07T11:08:43.673Z,13072.00
2019-04-07T11:09:43.933Z,12312.00
2019-04-07T11:10:44.193Z,11556.00
2019-04-07T11:11:43.885Z,11028.00
2019-04-07T11:12:43.813Z,10628.00
2019-04-07T11:13:43.951Z,10476.00
2019-04-07T11:14:44.485Z,10436.00
2019-04-07T11:15:44.419Z,10652.00
2019-04-07T11:16:44.205Z,11076.00
2019-04-07T11:17:43.987Z,11604.00
2019-04-07T11:18:44.057Z,11964.00
2019-04-07T11:19:44.530Z,11952.00
2019-04-07T11:20:44.484Z,11832.00
2019-04-07T11:21:44.125Z,11728.00
2019-04-07T11:22:44.231Z,11816.00
2019-04-07T11:23:45.160Z,12036.00
2019-04-07T11:24:44.231Z,12320.00
2019-04-07T11:25:45.018Z,12556.00
2019-04-07T11:26:44.297Z,13084.00
2019-04-07T11:27:45.076Z,13656.00
2019-04-07T11:28:44.655Z,13992.00
2019-04-07T11:29:44.405Z,14460.00
2019-04-07T11:30:45.326Z,15296.00
2019-04-07T11:31:45.008Z,16568.00
2019-04-07T11:32:44.505Z,18784.00
2019-04-07T11:33:44.992Z,20512.00
2019-04-07T11:34:45.418Z,21376.00
2019-04-07T11:35:45.509Z,21056.00
2019-04-07T11:36:45.337Z,20480.00
2019-04-07T11:37:45.112Z,19872.00
2019-04-07T11:38:45.240Z,19392.00
2019-04-07T11:39:44.764Z,18976.00
2019-04-07T11:40:50.165Z,18784.00
2019-04-07T11:41:44.816Z,18272.00
2019-04-07T11:42:44.916Z,17856.00
2019-04-07T11:43:44.885Z,17984.00
2019-04-07T11:44:45.580Z,18528.00
2019-04-07T11:45:56.139Z,19456.00
2019-04-07T11:46:45.019Z,20640.00
2019-04-07T11:47:45.023Z,22048.00
2019-04-07T11:48:45.059Z,22848.00
2019-04-07T11:49:46.096Z,22112.00
2019-04-07T11:50:45.128Z,21152.00
2019-04-07T11:51:45.163Z,19904.00
2019-04-07T11:52:45.203Z,19520.00
2019-04-07T11:53:45.951Z,19328.00
2019-04-07T11:54:45.267Z,18528.00
2019-04-07T11:55:45.468Z,18240.00
2019-04-07T11:56:46.039Z,18208.00
2019-04-07T11:57:45.603Z,18720.00
2019-04-07T11:58:45.411Z,19104.00
2019-04-07T11:59:45.910Z,19360.00
2019-04-07T12:00:46.223Z,19616.00
2019-04-07T12:01:47.962Z,20000.00
2019-04-07T12:02:45.599Z,20224.00
2019-04-07T12:03:46.232Z,20640.00
2019-04-07T12:04:45.619Z,21248.00
2019-04-07T12:05:46.079Z,21760.00
2019-04-07T12:06:48.091Z,21376.00
2019-04-07T12:07:45.887Z,21280.00
2019-04-07T12:08:45.763Z,21504.00
2019-04-07T12:09:46.698Z,21536.00
2019-04-07T12:10:56.392Z,21248.00
2019-04-07T12:11:46.422Z,20992.00
2019-04-07T12:12:45.901Z,20416.00
2019-04-07T12:13:46.674Z,19264.00
2019-04-07T12:14:50.035Z,18144.00
2019-04-07T12:15:46.293Z,17088.00
2019-04-07T12:16:46.049Z,16280.00
2019-04-07T12:17:46.252Z,16016.00
2019-04-07T12:18:50.100Z,16328.00
2019-04-07T12:19:46.328Z,17952.00
2019-04-07T12:20:46.250Z,19872.00
2019-04-07T12:21:46.991Z,20576.00
2019-04-07T12:22:48.016Z,25056.00
2019-04-07T12:23:46.514Z,24736.00
2019-04-07T12:24:46.331Z,24128.00
2019-04-07T12:25:47.135Z,24096.00
2019-04-07T12:26:46.398Z,25536.00
2019-04-07T12:27:47.140Z,24640.00
2019-04-07T12:28:49.110Z,24128.00
2019-04-07T12:29:47.179Z,24000.00
2019-04-07T12:30:46.983Z,24224.00